sensor_id;sensor_type;location;lat;lon;timestamp;P1;durP1;ratioP1;P2;durP2;ratioP2
71888;SDS011;59762;49.998;14.858;2022-07-23T00:00:15;9.98;;;6.10;;
71888;SDS011;59762;49.998;14.858;2022-07-23T00:03:01;8.68;;;5.60;;
71888;SDS011;59762;49.998;14.858;2022-07-23T00:05:26;6.78;;;5.95;;
71888;SDS011;59762;49.998;14.858;2022-07-23T00:07:52;7.75;;;5.82;;
71888;SDS011;59762;49.998;14.858;2022-07-23T00:10:17;9.55;;;5.88;;
71888;SDS011;59762;49.998;14.858;2022-07-23T00:12:43;6.68;;;5.50;;
71888;SDS011;59762;49.998;14.858;2022-07-23T00:15:09;7.80;;;5.80;;
71888;SDS011;59762;49.998;14.858;2022-07-23T00:17:35;8.02;;;5.93;;
71888;SDS011;59762;49.998;14.858;2022-07-23T00:20:00;8.60;;;5.82;;
71888;SDS011;59762;49.998;14.858;2022-07-23T00:22:26;10.65;;;6.25;;
71888;SDS011;59762;49.998;14.858;2022-07-23T00:24:54;7.68;;;5.72;;
71888;SDS011;59762;49.998;14.858;2022-07-23T00:27:20;8.77;;;5.88;;
71888;SDS011;59762;49.998;14.858;2022-07-23T00:29:46;8.00;;;6.13;;
71888;SDS011;59762;49.998;14.858;2022-07-23T00:32:11;10.20;;;6.15;;
71888;SDS011;59762;49.998;14.858;2022-07-23T00:34:37;10.98;;;6.25;;
71888;SDS011;59762;49.998;14.858;2022-07-23T00:37:03;8.30;;;6.63;;
71888;SDS011;59762;49.998;14.858;2022-07-23T00:39:28;9.75;;;6.35;;
71888;SDS011;59762;49.998;14.858;2022-07-23T00:41:54;8.27;;;5.68;;
71888;SDS011;59762;49.998;14.858;2022-07-23T00:44:23;10.15;;;6.93;;
71888;SDS011;59762;49.998;14.858;2022-07-23T00:46:52;10.07;;;6.50;;
71888;SDS011;59762;49.998;14.858;2022-07-23T00:49:20;7.60;;;6.30;;
71888;SDS011;59762;49.998;14.858;2022-07-23T00:51:48;8.00;;;6.03;;
71888;SDS011;59762;49.998;14.858;2022-07-23T00:54:15;9.68;;;6.18;;
71888;SDS011;59762;49.998;14.858;2022-07-23T00:56:42;7.38;;;5.93;;
71888;SDS011;59762;49.998;14.858;2022-07-23T00:59:09;9.18;;;6.05;;
71888;SDS011;59762;49.998;14.858;2022-07-23T01:01:35;8.93;;;6.38;;
71888;SDS011;59762;49.998;14.858;2022-07-23T01:04:01;10.00;;;7.53;;
71888;SDS011;59762;49.998;14.858;2022-07-23T01:06:27;8.07;;;6.22;;
71888;SDS011;59762;49.998;14.858;2022-07-23T01:08:53;10.30;;;6.45;;
71888;SDS011;59762;49.998;14.858;2022-07-23T01:11:21;8.70;;;5.97;;
71888;SDS011;59762;49.998;14.858;2022-07-23T01:13:48;8.90;;;6.05;;
71888;SDS011;59762;49.998;14.858;2022-07-23T01:16:14;9.13;;;6.03;;
71888;SDS011;59762;49.998;14.858;2022-07-23T01:18:39;8.73;;;6.45;;
71888;SDS011;59762;49.998;14.858;2022-07-23T01:21:05;7.72;;;6.03;;
71888;SDS011;59762;49.998;14.858;2022-07-23T01:23:30;9.60;;;6.28;;
71888;SDS011;59762;49.998;14.858;2022-07-23T01:25:56;7.70;;;6.25;;
71888;SDS011;59762;49.998;14.858;2022-07-23T01:28:22;9.18;;;6.50;;
71888;SDS011;59762;49.998;14.858;2022-07-23T01:30:47;7.05;;;6.13;;
71888;SDS011;59762;49.998;14.858;2022-07-23T01:33:14;9.40;;;6.50;;
71888;SDS011;59762;49.998;14.858;2022-07-23T01:35:40;7.75;;;6.32;;
71888;SDS011;59762;49.998;14.858;2022-07-23T01:38:05;9.63;;;6.65;;
71888;SDS011;59762;49.998;14.858;2022-07-23T01:40:31;9.43;;;6.68;;
71888;SDS011;59762;49.998;14.858;2022-07-23T01:42:57;8.05;;;6.75;;
71888;SDS011;59762;49.998;14.858;2022-07-23T01:45:22;7.28;;;5.90;;
71888;SDS011;59762;49.998;14.858;2022-07-23T01:47:48;7.00;;;5.70;;
71888;SDS011;59762;49.998;14.858;2022-07-23T01:50:14;8.43;;;5.95;;
71888;SDS011;59762;49.998;14.858;2022-07-23T01:52:40;8.50;;;6.30;;
71888;SDS011;59762;49.998;14.858;2022-07-23T01:55:06;8.63;;;6.35;;
71888;SDS011;59762;49.998;14.858;2022-07-23T01:57:33;9.80;;;6.70;;
71888;SDS011;59762;49.998;14.858;2022-07-23T01:59:59;7.82;;;5.93;;
71888;SDS011;59762;49.998;14.858;2022-07-23T02:02:24;12.68;;;6.40;;
71888;SDS011;59762;49.998;14.858;2022-07-23T02:04:50;9.27;;;6.60;;
71888;SDS011;59762;49.998;14.858;2022-07-23T02:07:16;8.05;;;6.40;;
71888;SDS011;59762;49.998;14.858;2022-07-23T02:09:41;11.85;;;6.50;;
71888;SDS011;59762;49.998;14.858;2022-07-23T02:12:07;10.35;;;7.40;;
71888;SDS011;59762;49.998;14.858;2022-07-23T02:14:33;8.48;;;6.63;;
71888;SDS011;59762;49.998;14.858;2022-07-23T02:16:59;11.30;;;6.70;;
71888;SDS011;59762;49.998;14.858;2022-07-23T02:19:24;9.90;;;7.43;;
71888;SDS011;59762;49.998;14.858;2022-07-23T02:21:50;7.88;;;6.30;;
71888;SDS011;59762;49.998;14.858;2022-07-23T02:24:16;10.43;;;6.82;;
71888;SDS011;59762;49.998;14.858;2022-07-23T02:26:42;12.07;;;6.90;;
71888;SDS011;59762;49.998;14.858;2022-07-23T02:29:07;9.10;;;6.95;;
71888;SDS011;59762;49.998;14.858;2022-07-23T02:31:34;7.18;;;6.47;;
71888;SDS011;59762;49.998;14.858;2022-07-23T02:34:00;8.05;;;6.75;;
71888;SDS011;59762;49.998;14.858;2022-07-23T02:36:26;9.73;;;7.07;;
71888;SDS011;59762;49.998;14.858;2022-07-23T02:38:51;9.05;;;6.57;;
71888;SDS011;59762;49.998;14.858;2022-07-23T02:41:17;8.85;;;7.03;;
71888;SDS011;59762;49.998;14.858;2022-07-23T02:43:42;9.27;;;7.00;;
71888;SDS011;59762;49.998;14.858;2022-07-23T02:46:08;7.82;;;6.60;;
71888;SDS011;59762;49.998;14.858;2022-07-23T02:48:34;8.18;;;6.70;;
71888;SDS011;59762;49.998;14.858;2022-07-23T02:50:59;8.93;;;6.63;;
71888;SDS011;59762;49.998;14.858;2022-07-23T02:53:25;9.13;;;6.43;;
71888;SDS011;59762;49.998;14.858;2022-07-23T02:55:51;8.93;;;6.70;;
71888;SDS011;59762;49.998;14.858;2022-07-23T02:58:16;8.52;;;6.40;;
71888;SDS011;59762;49.998;14.858;2022-07-23T03:00:42;7.40;;;5.85;;
71888;SDS011;59762;49.998;14.858;2022-07-23T03:03:08;10.40;;;6.13;;
71888;SDS011;59762;49.998;14.858;2022-07-23T03:05:34;9.02;;;6.38;;
71888;SDS011;59762;49.998;14.858;2022-07-23T03:08:00;10.32;;;6.53;;
71888;SDS011;59762;49.998;14.858;2022-07-23T03:10:25;9.77;;;6.28;;
71888;SDS011;59762;49.998;14.858;2022-07-23T03:12:51;8.98;;;5.78;;
71888;SDS011;59762;49.998;14.858;2022-07-23T03:15:17;9.50;;;6.20;;
71888;SDS011;59762;49.998;14.858;2022-07-23T03:17:42;10.13;;;6.45;;
71888;SDS011;59762;49.998;14.858;2022-07-23T03:20:08;9.05;;;6.22;;
71888;SDS011;59762;49.998;14.858;2022-07-23T03:22:34;8.70;;;6.00;;
71888;SDS011;59762;49.998;14.858;2022-07-23T03:25:00;8.43;;;6.20;;
71888;SDS011;59762;49.998;14.858;2022-07-23T03:27:27;9.00;;;6.20;;
71888;SDS011;59762;49.998;14.858;2022-07-23T03:29:55;11.07;;;6.60;;
71888;SDS011;59762;49.998;14.858;2022-07-23T03:32:21;8.57;;;5.70;;
71888;SDS011;59762;49.998;14.858;2022-07-23T03:34:48;14.95;;;6.90;;
71888;SDS011;59762;49.998;14.858;2022-07-23T03:37:14;10.07;;;6.97;;
71888;SDS011;59762;49.998;14.858;2022-07-23T03:39:40;8.70;;;6.10;;
71888;SDS011;59762;49.998;14.858;2022-07-23T03:42:05;7.65;;;6.05;;
71888;SDS011;59762;49.998;14.858;2022-07-23T03:44:32;9.65;;;6.25;;
71888;SDS011;59762;49.998;14.858;2022-07-23T03:46:57;11.57;;;7.38;;
71888;SDS011;59762;49.998;14.858;2022-07-23T03:49:23;7.78;;;6.57;;
71888;SDS011;59762;49.998;14.858;2022-07-23T03:51:49;9.07;;;6.13;;
71888;SDS011;59762;49.998;14.858;2022-07-23T03:54:14;8.85;;;6.25;;
71888;SDS011;59762;49.998;14.858;2022-07-23T03:56:40;7.65;;;6.07;;
71888;SDS011;59762;49.998;14.858;2022-07-23T03:59:06;8.75;;;5.80;;
71888;SDS011;59762;49.998;14.858;2022-07-23T04:01:31;8.32;;;6.35;;
71888;SDS011;59762;49.998;14.858;2022-07-23T04:03:57;9.32;;;5.97;;
71888;SDS011;59762;49.998;14.858;2022-07-23T04:06:23;8.30;;;5.88;;
71888;SDS011;59762;49.998;14.858;2022-07-23T04:08:48;9.95;;;6.38;;
71888;SDS011;59762;49.998;14.858;2022-07-23T04:11:14;7.72;;;5.90;;
71888;SDS011;59762;49.998;14.858;2022-07-23T04:13:39;8.02;;;5.90;;
71888;SDS011;59762;49.998;14.858;2022-07-23T04:16:05;8.55;;;6.30;;
71888;SDS011;59762;49.998;14.858;2022-07-23T04:18:31;8.10;;;5.68;;
71888;SDS011;59762;49.998;14.858;2022-07-23T04:20:57;7.88;;;6.20;;
71888;SDS011;59762;49.998;14.858;2022-07-23T04:23:23;8.60;;;5.78;;
71888;SDS011;59762;49.998;14.858;2022-07-23T04:25:48;9.32;;;6.05;;
71888;SDS011;59762;49.998;14.858;2022-07-23T04:28:14;8.43;;;5.97;;
71888;SDS011;59762;49.998;14.858;2022-07-23T04:30:40;6.72;;;5.25;;
71888;SDS011;59762;49.998;14.858;2022-07-23T04:33:06;8.70;;;6.18;;
71888;SDS011;59762;49.998;14.858;2022-07-23T04:35:34;8.38;;;5.68;;
71888;SDS011;59762;49.998;14.858;2022-07-23T04:38:00;10.23;;;6.20;;
71888;SDS011;59762;49.998;14.858;2022-07-23T04:40:26;8.73;;;6.78;;
71888;SDS011;59762;49.998;14.858;2022-07-23T04:42:52;9.98;;;7.55;;
71888;SDS011;59762;49.998;14.858;2022-07-23T04:45:18;10.43;;;7.00;;
71888;SDS011;59762;49.998;14.858;2022-07-23T04:47:44;6.95;;;6.10;;
71888;SDS011;59762;49.998;14.858;2022-07-23T04:50:09;10.50;;;7.00;;
71888;SDS011;59762;49.998;14.858;2022-07-23T04:52:35;12.02;;;7.05;;
71888;SDS011;59762;49.998;14.858;2022-07-23T04:55:01;7.63;;;6.53;;
71888;SDS011;59762;49.998;14.858;2022-07-23T04:57:27;9.63;;;6.45;;
71888;SDS011;59762;49.998;14.858;2022-07-23T04:59:52;10.30;;;7.13;;
71888;SDS011;59762;49.998;14.858;2022-07-23T05:02:18;10.15;;;6.85;;
71888;SDS011;59762;49.998;14.858;2022-07-23T05:04:44;11.15;;;7.22;;
71888;SDS011;59762;49.998;14.858;2022-07-23T05:07:09;10.55;;;7.40;;
71888;SDS011;59762;49.998;14.858;2022-07-23T05:09:35;10.13;;;7.28;;
71888;SDS011;59762;49.998;14.858;2022-07-23T05:12:00;10.55;;;6.72;;
71888;SDS011;59762;49.998;14.858;2022-07-23T05:14:26;9.32;;;6.75;;
71888;SDS011;59762;49.998;14.858;2022-07-23T05:16:53;8.57;;;6.20;;
71888;SDS011;59762;49.998;14.858;2022-07-23T05:19:18;9.23;;;6.07;;
71888;SDS011;59762;49.998;14.858;2022-07-23T05:21:44;8.63;;;6.57;;
71888;SDS011;59762;49.998;14.858;2022-07-23T05:24:09;8.55;;;6.57;;
71888;SDS011;59762;49.998;14.858;2022-07-23T05:26:35;9.15;;;6.95;;
71888;SDS011;59762;49.998;14.858;2022-07-23T05:29:01;10.38;;;6.90;;
71888;SDS011;59762;49.998;14.858;2022-07-23T05:31:26;10.73;;;6.60;;
71888;SDS011;59762;49.998;14.858;2022-07-23T05:33:52;10.15;;;6.13;;
71888;SDS011;59762;49.998;14.858;2022-07-23T05:36:17;8.15;;;6.57;;
71888;SDS011;59762;49.998;14.858;2022-07-23T05:38:43;8.32;;;6.28;;
71888;SDS011;59762;49.998;14.858;2022-07-23T05:41:09;9.43;;;6.78;;
71888;SDS011;59762;49.998;14.858;2022-07-23T05:43:34;8.55;;;6.10;;
71888;SDS011;59762;49.998;14.858;2022-07-23T05:45:59;9.10;;;6.22;;
71888;SDS011;59762;49.998;14.858;2022-07-23T05:48:25;10.60;;;6.40;;
71888;SDS011;59762;49.998;14.858;2022-07-23T05:50:51;8.20;;;5.97;;
71888;SDS011;59762;49.998;14.858;2022-07-23T05:53:16;8.40;;;6.38;;
71888;SDS011;59762;49.998;14.858;2022-07-23T05:55:42;7.95;;;6.25;;
71888;SDS011;59762;49.998;14.858;2022-07-23T05:58:07;7.15;;;6.00;;
71888;SDS011;59762;49.998;14.858;2022-07-23T06:00:34;7.63;;;5.72;;
71888;SDS011;59762;49.998;14.858;2022-07-23T06:02:59;8.27;;;6.05;;
71888;SDS011;59762;49.998;14.858;2022-07-23T06:05:25;7.53;;;6.13;;
71888;SDS011;59762;49.998;14.858;2022-07-23T06:07:51;7.65;;;6.07;;
71888;SDS011;59762;49.998;14.858;2022-07-23T06:10:18;10.35;;;6.43;;
71888;SDS011;59762;49.998;14.858;2022-07-23T06:12:44;9.77;;;6.57;;
71888;SDS011;59762;49.998;14.858;2022-07-23T06:15:09;9.90;;;7.00;;
71888;SDS011;59762;49.998;14.858;2022-07-23T06:17:36;7.47;;;5.80;;
71888;SDS011;59762;49.998;14.858;2022-07-23T06:20:05;6.65;;;5.88;;
71888;SDS011;59762;49.998;14.858;2022-07-23T06:22:31;7.53;;;5.63;;
71888;SDS011;59762;49.998;14.858;2022-07-23T06:24:57;10.55;;;5.75;;
71888;SDS011;59762;49.998;14.858;2022-07-23T06:27:22;7.32;;;6.18;;
71888;SDS011;59762;49.998;14.858;2022-07-23T06:29:48;9.05;;;6.43;;
71888;SDS011;59762;49.998;14.858;2022-07-23T06:32:14;8.30;;;6.25;;
71888;SDS011;59762;49.998;14.858;2022-07-23T06:34:39;6.78;;;6.05;;
71888;SDS011;59762;49.998;14.858;2022-07-23T06:37:05;9.35;;;6.63;;
71888;SDS011;59762;49.998;14.858;2022-07-23T06:39:31;7.57;;;6.30;;
71888;SDS011;59762;49.998;14.858;2022-07-23T06:41:56;7.45;;;6.32;;
71888;SDS011;59762;49.998;14.858;2022-07-23T06:44:22;8.57;;;5.88;;
71888;SDS011;59762;49.998;14.858;2022-07-23T06:46:47;7.63;;;5.82;;
71888;SDS011;59762;49.998;14.858;2022-07-23T06:49:13;7.05;;;6.00;;
71888;SDS011;59762;49.998;14.858;2022-07-23T06:51:39;7.75;;;6.07;;
71888;SDS011;59762;49.998;14.858;2022-07-23T06:54:04;10.20;;;6.30;;
71888;SDS011;59762;49.998;14.858;2022-07-23T06:56:30;8.80;;;6.22;;
71888;SDS011;59762;49.998;14.858;2022-07-23T06:58:56;8.20;;;5.72;;
71888;SDS011;59762;49.998;14.858;2022-07-23T07:01:21;7.07;;;5.78;;
71888;SDS011;59762;49.998;14.858;2022-07-23T07:03:47;7.63;;;5.75;;
71888;SDS011;59762;49.998;14.858;2022-07-23T07:06:13;9.40;;;6.18;;
71888;SDS011;59762;49.998;14.858;2022-07-23T07:08:39;6.90;;;5.82;;
71888;SDS011;59762;49.998;14.858;2022-07-23T07:11:04;6.72;;;6.00;;
71888;SDS011;59762;49.998;14.858;2022-07-23T07:13:30;7.03;;;6.20;;
71888;SDS011;59762;49.998;14.858;2022-07-23T07:15:56;6.80;;;6.10;;
71888;SDS011;59762;49.998;14.858;2022-07-23T07:18:21;9.52;;;6.20;;
71888;SDS011;59762;49.998;14.858;2022-07-23T07:20:47;7.97;;;5.85;;
71888;SDS011;59762;49.998;14.858;2022-07-23T07:23:13;8.32;;;6.13;;
71888;SDS011;59762;49.998;14.858;2022-07-23T07:25:38;8.38;;;5.97;;
71888;SDS011;59762;49.998;14.858;2022-07-23T07:28:04;7.40;;;5.47;;
71888;SDS011;59762;49.998;14.858;2022-07-23T07:30:30;8.27;;;6.00;;
71888;SDS011;59762;49.998;14.858;2022-07-23T07:32:55;8.00;;;5.70;;
71888;SDS011;59762;49.998;14.858;2022-07-23T07:35:21;7.53;;;5.97;;
71888;SDS011;59762;49.998;14.858;2022-07-23T07:37:46;9.93;;;7.10;;
71888;SDS011;59762;49.998;14.858;2022-07-23T07:40:12;10.73;;;7.50;;
71888;SDS011;59762;49.998;14.858;2022-07-23T07:42:47;10.75;;;7.60;;
71888;SDS011;59762;49.998;14.858;2022-07-23T07:45:14;8.90;;;6.82;;
71888;SDS011;59762;49.998;14.858;2022-07-23T07:47:40;10.38;;;6.70;;
71888;SDS011;59762;49.998;14.858;2022-07-23T07:50:07;10.88;;;7.57;;
71888;SDS011;59762;49.998;14.858;2022-07-23T07:52:33;14.35;;;7.43;;
71888;SDS011;59762;49.998;14.858;2022-07-23T07:55:02;12.88;;;7.35;;
71888;SDS011;59762;49.998;14.858;2022-07-23T07:57:32;8.52;;;6.20;;
71888;SDS011;59762;49.998;14.858;2022-07-23T07:59:58;9.35;;;5.95;;
71888;SDS011;59762;49.998;14.858;2022-07-23T08:02:23;8.93;;;6.80;;
71888;SDS011;59762;49.998;14.858;2022-07-23T08:04:49;14.15;;;7.78;;
71888;SDS011;59762;49.998;14.858;2022-07-23T08:07:15;9.85;;;6.68;;
71888;SDS011;59762;49.998;14.858;2022-07-23T08:09:41;8.55;;;6.25;;
71888;SDS011;59762;49.998;14.858;2022-07-23T08:12:06;10.73;;;6.70;;
71888;SDS011;59762;49.998;14.858;2022-07-23T08:14:32;9.73;;;6.57;;
71888;SDS011;59762;49.998;14.858;2022-07-23T08:16:58;10.23;;;6.15;;
71888;SDS011;59762;49.998;14.858;2022-07-23T08:19:24;9.63;;;6.78;;
71888;SDS011;59762;49.998;14.858;2022-07-23T08:21:49;8.98;;;6.90;;
71888;SDS011;59762;49.998;14.858;2022-07-23T08:24:15;7.85;;;6.30;;
71888;SDS011;59762;49.998;14.858;2022-07-23T08:26:45;7.88;;;6.00;;
71888;SDS011;59762;49.998;14.858;2022-07-23T08:29:11;10.73;;;5.60;;
71888;SDS011;59762;49.998;14.858;2022-07-23T08:31:36;5.57;;;4.97;;
71888;SDS011;59762;49.998;14.858;2022-07-23T08:34:02;7.35;;;5.03;;
71888;SDS011;59762;49.998;14.858;2022-07-23T08:36:28;7.32;;;5.20;;
71888;SDS011;59762;49.998;14.858;2022-07-23T08:38:57;6.60;;;4.75;;
71888;SDS011;59762;49.998;14.858;2022-07-23T08:41:24;7.38;;;4.50;;
71888;SDS011;59762;49.998;14.858;2022-07-23T08:43:50;6.68;;;4.60;;
71888;SDS011;59762;49.998;14.858;2022-07-23T08:46:16;6.57;;;4.50;;
71888;SDS011;59762;49.998;14.858;2022-07-23T08:48:44;8.23;;;5.15;;
71888;SDS011;59762;49.998;14.858;2022-07-23T08:51:14;8.50;;;4.70;;
71888;SDS011;59762;49.998;14.858;2022-07-23T08:53:40;7.65;;;4.88;;
71888;SDS011;59762;49.998;14.858;2022-07-23T08:56:07;6.88;;;4.88;;
71888;SDS011;59762;49.998;14.858;2022-07-23T08:58:33;9.57;;;5.20;;
71888;SDS011;59762;49.998;14.858;2022-07-23T09:00:59;6.03;;;4.68;;
71888;SDS011;59762;49.998;14.858;2022-07-23T09:03:27;7.28;;;4.88;;
71888;SDS011;59762;49.998;14.858;2022-07-23T09:06:04;7.10;;;4.68;;
71888;SDS011;59762;49.998;14.858;2022-07-23T09:11:07;5.88;;;4.22;;
71888;SDS011;59762;49.998;14.858;2022-07-23T09:29:20;6.72;;;4.10;;
71888;SDS011;59762;49.998;14.858;2022-07-23T09:36:55;8.15;;;4.13;;
71888;SDS011;59762;49.998;14.858;2022-07-23T09:39:26;5.18;;;3.72;;
71888;SDS011;59762;49.998;14.858;2022-07-23T09:41:52;8.40;;;3.78;;
71888;SDS011;59762;49.998;14.858;2022-07-23T09:44:19;4.18;;;3.45;;
71888;SDS011;59762;49.998;14.858;2022-07-23T09:46:46;4.95;;;3.63;;
71888;SDS011;59762;49.998;14.858;2022-07-23T09:51:45;5.15;;;3.53;;
71888;SDS011;59762;49.998;14.858;2022-07-23T09:54:21;4.85;;;3.53;;
71888;SDS011;59762;49.998;14.858;2022-07-23T09:56:49;6.82;;;4.20;;
71888;SDS011;59762;49.998;14.858;2022-07-23T09:59:16;6.05;;;3.65;;
71888;SDS011;59762;49.998;14.858;2022-07-23T10:01:44;5.15;;;3.63;;
71888;SDS011;59762;49.998;14.858;2022-07-23T10:04:11;5.10;;;3.50;;
71888;SDS011;59762;49.998;14.858;2022-07-23T10:06:38;4.78;;;3.95;;
71888;SDS011;59762;49.998;14.858;2022-07-23T10:09:04;5.50;;;3.78;;
71888;SDS011;59762;49.998;14.858;2022-07-23T10:11:30;7.45;;;4.03;;
71888;SDS011;59762;49.998;14.858;2022-07-23T10:13:58;6.15;;;4.35;;
71888;SDS011;59762;49.998;14.858;2022-07-23T10:16:25;4.90;;;3.63;;
71888;SDS011;59762;49.998;14.858;2022-07-23T10:18:51;5.50;;;3.70;;
71888;SDS011;59762;49.998;14.858;2022-07-23T10:21:23;5.82;;;4.13;;
71888;SDS011;59762;49.998;14.858;2022-07-23T10:24:01;6.57;;;4.00;;
71888;SDS011;59762;49.998;14.858;2022-07-23T10:26:38;6.87;;;4.23;;
71888;SDS011;59762;49.998;14.858;2022-07-23T10:29:38;5.97;;;4.18;;
71888;SDS011;59762;49.998;14.858;2022-07-23T10:35:29;4.72;;;4.03;;
71888;SDS011;59762;49.998;14.858;2022-07-23T10:40:53;5.93;;;4.03;;
71888;SDS011;59762;49.998;14.858;2022-07-23T10:43:21;4.68;;;3.92;;
71888;SDS011;59762;49.998;14.858;2022-07-23T10:45:47;6.30;;;4.00;;
71888;SDS011;59762;49.998;14.858;2022-07-23T10:56:14;6.50;;;4.00;;
71888;SDS011;59762;49.998;14.858;2022-07-23T10:58:47;4.80;;;3.50;;
71888;SDS011;59762;49.998;14.858;2022-07-23T11:07:10;5.55;;;3.92;;
71888;SDS011;59762;49.998;14.858;2022-07-23T11:12:50;6.95;;;3.70;;
71888;SDS011;59762;49.998;14.858;2022-07-23T11:17:22;6.13;;;4.43;;
71888;SDS011;59762;49.998;14.858;2022-07-23T11:22:47;5.10;;;3.90;;
71888;SDS011;59762;49.998;14.858;2022-07-23T11:27:47;4.47;;;3.88;;
71888;SDS011;59762;49.998;14.858;2022-07-23T11:32:51;6.60;;;4.22;;
71888;SDS011;59762;49.998;14.858;2022-07-23T11:35:21;5.72;;;4.10;;
71888;SDS011;59762;49.998;14.858;2022-07-23T11:37:49;5.28;;;4.50;;
71888;SDS011;59762;49.998;14.858;2022-07-23T11:40:19;6.28;;;3.92;;
71888;SDS011;59762;49.998;14.858;2022-07-23T11:42:56;6.75;;;4.00;;
71888;SDS011;59762;49.998;14.858;2022-07-23T11:45:48;6.75;;;4.10;;
71888;SDS011;59762;49.998;14.858;2022-07-23T11:48:23;10.13;;;7.22;;
71888;SDS011;59762;49.998;14.858;2022-07-23T11:50:52;4.20;;;3.67;;
71888;SDS011;59762;49.998;14.858;2022-07-23T11:53:22;5.03;;;4.18;;
71888;SDS011;59762;49.998;14.858;2022-07-23T11:56:06;8.70;;;4.40;;
71888;SDS011;59762;49.998;14.858;2022-07-23T11:58:34;4.55;;;3.95;;
71888;SDS011;59762;49.998;14.858;2022-07-23T12:01:02;4.43;;;3.92;;
71888;SDS011;59762;49.998;14.858;2022-07-23T12:03:28;6.57;;;4.47;;
71888;SDS011;59762;49.998;14.858;2022-07-23T12:05:57;5.68;;;4.32;;
71888;SDS011;59762;49.998;14.858;2022-07-23T12:08:24;9.10;;;4.90;;
71888;SDS011;59762;49.998;14.858;2022-07-23T12:10:50;4.90;;;4.40;;
71888;SDS011;59762;49.998;14.858;2022-07-23T12:13:17;5.63;;;4.38;;
71888;SDS011;59762;49.998;14.858;2022-07-23T12:15:56;6.45;;;4.63;;
71888;SDS011;59762;49.998;14.858;2022-07-23T12:18:24;4.63;;;4.13;;
71888;SDS011;59762;49.998;14.858;2022-07-23T12:20:52;8.23;;;5.38;;
71888;SDS011;59762;49.998;14.858;2022-07-23T12:23:20;4.72;;;4.22;;
71888;SDS011;59762;49.998;14.858;2022-07-23T12:25:48;6.90;;;4.30;;
71888;SDS011;59762;49.998;14.858;2022-07-23T12:28:51;8.23;;;4.63;;
71888;SDS011;59762;49.998;14.858;2022-07-23T12:31:08;6.28;;;4.80;;
71888;SDS011;59762;49.998;14.858;2022-07-23T12:33:38;6.32;;;5.10;;
71888;SDS011;59762;49.998;14.858;2022-07-23T12:36:05;7.10;;;5.50;;
71888;SDS011;59762;49.998;14.858;2022-07-23T12:38:36;9.50;;;6.15;;
71888;SDS011;59762;49.998;14.858;2022-07-23T12:41:12;6.72;;;4.97;;
71888;SDS011;59762;49.998;14.858;2022-07-23T12:43:39;6.45;;;4.93;;
71888;SDS011;59762;49.998;14.858;2022-07-23T12:51:08;8.75;;;5.15;;
71888;SDS011;59762;49.998;14.858;2022-07-23T12:53:42;6.47;;;4.55;;
71888;SDS011;59762;49.998;14.858;2022-07-23T12:56:11;7.45;;;4.80;;
71888;SDS011;59762;49.998;14.858;2022-07-23T12:58:39;5.65;;;4.90;;
71888;SDS011;59762;49.998;14.858;2022-07-23T13:09:15;13.18;;;7.90;;
71888;SDS011;59762;49.998;14.858;2022-07-23T13:11:49;9.50;;;7.43;;
71888;SDS011;59762;49.998;14.858;2022-07-23T13:14:16;12.65;;;8.85;;
71888;SDS011;59762;49.998;14.858;2022-07-23T13:16:43;11.38;;;8.23;;
71888;SDS011;59762;49.998;14.858;2022-07-23T13:19:09;12.98;;;8.93;;
71888;SDS011;59762;49.998;14.858;2022-07-23T13:21:36;17.58;;;10.05;;
71888;SDS011;59762;49.998;14.858;2022-07-23T13:24:01;12.30;;;8.43;;
71888;SDS011;59762;49.998;14.858;2022-07-23T13:26:27;14.35;;;9.13;;
71888;SDS011;59762;49.998;14.858;2022-07-23T13:28:53;19.23;;;9.63;;
71888;SDS011;59762;49.998;14.858;2022-07-23T13:31:19;12.93;;;9.45;;
71888;SDS011;59762;49.998;14.858;2022-07-23T13:33:45;18.17;;;10.35;;
71888;SDS011;59762;49.998;14.858;2022-07-23T13:36:11;13.32;;;9.25;;
71888;SDS011;59762;49.998;14.858;2022-07-23T13:38:36;12.48;;;8.73;;
71888;SDS011;59762;49.998;14.858;2022-07-23T13:41:02;14.27;;;8.70;;
71888;SDS011;59762;49.998;14.858;2022-07-23T13:43:28;12.55;;;7.80;;
71888;SDS011;59762;49.998;14.858;2022-07-23T13:45:54;12.98;;;8.90;;
71888;SDS011;59762;49.998;14.858;2022-07-23T13:48:20;11.55;;;8.25;;
71888;SDS011;59762;49.998;14.858;2022-07-23T13:50:47;12.52;;;7.85;;
71888;SDS011;59762;49.998;14.858;2022-07-23T13:53:15;14.98;;;8.85;;
71888;SDS011;59762;49.998;14.858;2022-07-23T13:55:42;11.57;;;8.30;;
71888;SDS011;59762;49.998;14.858;2022-07-23T13:58:08;12.38;;;8.38;;
71888;SDS011;59762;49.998;14.858;2022-07-23T14:00:36;11.95;;;9.30;;
71888;SDS011;59762;49.998;14.858;2022-07-23T14:03:04;10.95;;;8.13;;
71888;SDS011;59762;49.998;14.858;2022-07-23T14:05:30;13.23;;;9.50;;
71888;SDS011;59762;49.998;14.858;2022-07-23T14:07:55;11.43;;;8.30;;
71888;SDS011;59762;49.998;14.858;2022-07-23T14:10:22;12.52;;;9.30;;
71888;SDS011;59762;49.998;14.858;2022-07-23T14:12:49;13.98;;;9.23;;
71888;SDS011;59762;49.998;14.858;2022-07-23T14:15:16;14.10;;;9.13;;
71888;SDS011;59762;49.998;14.858;2022-07-23T14:17:43;12.73;;;9.15;;
71888;SDS011;59762;49.998;14.858;2022-07-23T14:20:10;11.90;;;8.18;;
71888;SDS011;59762;49.998;14.858;2022-07-23T14:22:37;11.90;;;8.27;;
71888;SDS011;59762;49.998;14.858;2022-07-23T14:25:03;12.75;;;8.82;;
71888;SDS011;59762;49.998;14.858;2022-07-23T14:27:31;10.60;;;8.15;;
71888;SDS011;59762;49.998;14.858;2022-07-23T14:29:57;13.00;;;9.00;;
71888;SDS011;59762;49.998;14.858;2022-07-23T14:32:23;12.40;;;9.00;;
71888;SDS011;59762;49.998;14.858;2022-07-23T14:34:49;11.52;;;8.25;;
71888;SDS011;59762;49.998;14.858;2022-07-23T14:37:15;9.85;;;8.25;;
71888;SDS011;59762;49.998;14.858;2022-07-23T14:39:41;11.90;;;8.40;;
71888;SDS011;59762;49.998;14.858;2022-07-23T14:42:08;11.75;;;8.18;;
71888;SDS011;59762;49.998;14.858;2022-07-23T14:44:34;10.13;;;8.00;;
71888;SDS011;59762;49.998;14.858;2022-07-23T14:47:01;9.90;;;8.05;;
71888;SDS011;59762;49.998;14.858;2022-07-23T14:49:30;11.63;;;7.80;;
71888;SDS011;59762;49.998;14.858;2022-07-23T14:51:56;12.07;;;9.13;;
71888;SDS011;59762;49.998;14.858;2022-07-23T14:54:22;10.68;;;8.15;;
71888;SDS011;59762;49.998;14.858;2022-07-23T14:56:48;10.30;;;7.97;;
71888;SDS011;59762;49.998;14.858;2022-07-23T14:59:13;12.02;;;8.32;;
71888;SDS011;59762;49.998;14.858;2022-07-23T15:01:39;10.40;;;8.18;;
71888;SDS011;59762;49.998;14.858;2022-07-23T15:04:05;11.35;;;8.50;;
71888;SDS011;59762;49.998;14.858;2022-07-23T15:06:31;10.48;;;8.27;;
71888;SDS011;59762;49.998;14.858;2022-07-23T15:08:57;12.27;;;7.90;;
71888;SDS011;59762;49.998;14.858;2022-07-23T15:11:23;9.98;;;8.02;;
71888;SDS011;59762;49.998;14.858;2022-07-23T15:13:49;10.02;;;8.38;;
71888;SDS011;59762;49.998;14.858;2022-07-23T15:16:14;10.13;;;7.68;;
71888;SDS011;59762;49.998;14.858;2022-07-23T15:18:40;11.13;;;8.20;;
71888;SDS011;59762;49.998;14.858;2022-07-23T15:21:06;10.80;;;9.35;;
71888;SDS011;59762;49.998;14.858;2022-07-23T15:23:32;11.93;;;8.93;;
71888;SDS011;59762;49.998;14.858;2022-07-23T15:25:57;14.15;;;10.13;;
71888;SDS011;59762;49.998;14.858;2022-07-23T15:28:23;17.58;;;10.02;;
71888;SDS011;59762;49.998;14.858;2022-07-23T15:30:49;13.75;;;10.10;;
71888;SDS011;59762;49.998;14.858;2022-07-23T15:33:16;12.77;;;9.60;;
71888;SDS011;59762;49.998;14.858;2022-07-23T15:35:42;13.30;;;9.02;;
71888;SDS011;59762;49.998;14.858;2022-07-23T15:38:08;14.98;;;10.15;;
71888;SDS011;59762;49.998;14.858;2022-07-23T15:40:33;12.20;;;9.48;;